sensor_id;sensor_type;location;lat;lon;timestamp;P1;durP1;ratioP1;P2;durP2;ratioP2
21492;SDS011;10908;50.690;4.400;2022-07-29T00:02:17;9.55;;;1.25;;
21492;SDS011;10908;50.690;4.400;2022-07-29T00:04:43;5.75;;;1.42;;
21492;SDS011;10908;50.690;4.400;2022-07-29T00:07:09;5.82;;;1.30;;
21492;SDS011;10908;50.690;4.400;2022-07-29T00:09:35;3.83;;;1.10;;
21492;SDS011;10908;50.690;4.400;2022-07-29T00:12:01;8.18;;;1.30;;
21492;SDS011;10908;50.690;4.400;2022-07-29T00:14:27;5.35;;;1.30;;
21492;SDS011;10908;50.690;4.400;2022-07-29T00:16:53;5.30;;;1.58;;
21492;SDS011;10908;50.690;4.400;2022-07-29T00:19:19;3.95;;;1.20;;
21492;SDS011;10908;50.690;4.400;2022-07-29T00:21:45;5.68;;;1.08;;
21492;SDS011;10908;50.690;4.400;2022-07-29T00:24:10;4.10;;;1.20;;
21492;SDS011;10908;50.690;4.400;2022-07-29T00:26:36;6.10;;;1.40;;
21492;SDS011;10908;50.690;4.400;2022-07-29T00:29:03;5.15;;;1.10;;
21492;SDS011;10908;50.690;4.400;2022-07-29T00:31:29;5.85;;;1.20;;
21492;SDS011;10908;50.690;4.400;2022-07-29T00:33:55;5.03;;;1.30;;
21492;SDS011;10908;50.690;4.400;2022-07-29T00:36:21;4.30;;;1.40;;
21492;SDS011;10908;50.690;4.400;2022-07-29T00:38:47;4.25;;;1.15;;
21492;SDS011;10908;50.690;4.400;2022-07-29T00:41:14;6.72;;;1.20;;
21492;SDS011;10908;50.690;4.400;2022-07-29T00:43:41;5.18;;;1.20;;
21492;SDS011;10908;50.690;4.400;2022-07-29T00:46:07;9.85;;;1.58;;
21492;SDS011;10908;50.690;4.400;2022-07-29T00:48:32;6.47;;;1.23;;
21492;SDS011;10908;50.690;4.400;2022-07-29T00:50:58;7.10;;;1.20;;
21492;SDS011;10908;50.690;4.400;2022-07-29T00:53:26;5.25;;;1.25;;
21492;SDS011;10908;50.690;4.400;2022-07-29T00:55:55;7.43;;;1.55;;
21492;SDS011;10908;50.690;4.400;2022-07-29T00:58:21;5.43;;;1.13;;
21492;SDS011;10908;50.690;4.400;2022-07-29T01:00:48;7.55;;;1.27;;
21492;SDS011;10908;50.690;4.400;2022-07-29T01:03:14;5.63;;;1.30;;
21492;SDS011;10908;50.690;4.400;2022-07-29T01:05:40;7.45;;;1.30;;
21492;SDS011;10908;50.690;4.400;2022-07-29T01:08:08;4.28;;;1.30;;
21492;SDS011;10908;50.690;4.400;2022-07-29T01:10:36;3.45;;;1.20;;
21492;SDS011;10908;50.690;4.400;2022-07-29T01:13:04;6.38;;;1.50;;
21492;SDS011;10908;50.690;4.400;2022-07-29T01:15:32;5.75;;;1.70;;
21492;SDS011;10908;50.690;4.400;2022-07-29T01:23:39;4.78;;;1.50;;
21492;SDS011;10908;50.690;4.400;2022-07-29T01:32:01;8.20;;;1.30;;
21492;SDS011;10908;50.690;4.400;2022-07-29T01:34:29;6.15;;;1.25;;
21492;SDS011;10908;50.690;4.400;2022-07-29T01:37:19;8.13;;;1.52;;
21492;SDS011;10908;50.690;4.400;2022-07-29T01:39:49;6.22;;;1.38;;
21492;SDS011;10908;50.690;4.400;2022-07-29T01:45:04;4.13;;;1.30;;
21492;SDS011;10908;50.690;4.400;2022-07-29T01:47:36;6.18;;;1.40;;
21492;SDS011;10908;50.690;4.400;2022-07-29T01:50:06;9.30;;;1.45;;
21492;SDS011;10908;50.690;4.400;2022-07-29T01:52:46;6.68;;;1.48;;
21492;SDS011;10908;50.690;4.400;2022-07-29T01:55:22;7.18;;;1.70;;
21492;SDS011;10908;50.690;4.400;2022-07-29T01:57:51;5.40;;;1.30;;
21492;SDS011;10908;50.690;4.400;2022-07-29T02:00:18;4.80;;;1.50;;
21492;SDS011;10908;50.690;4.400;2022-07-29T02:02:45;6.60;;;1.60;;
21492;SDS011;10908;50.690;4.400;2022-07-29T02:05:14;6.43;;;1.35;;
21492;SDS011;10908;50.690;4.400;2022-07-29T02:07:42;4.35;;;1.30;;
21492;SDS011;10908;50.690;4.400;2022-07-29T02:10:11;4.40;;;1.40;;
21492;SDS011;10908;50.690;4.400;2022-07-29T02:12:38;4.28;;;1.38;;
21492;SDS011;10908;50.690;4.400;2022-07-29T02:15:06;6.40;;;1.83;;
21492;SDS011;10908;50.690;4.400;2022-07-29T02:17:34;4.57;;;1.45;;
21492;SDS011;10908;50.690;4.400;2022-07-29T02:20:14;5.03;;;1.58;;
21492;SDS011;10908;50.690;4.400;2022-07-29T02:22:41;5.78;;;1.48;;
21492;SDS011;10908;50.690;4.400;2022-07-29T02:25:10;6.00;;;1.60;;
21492;SDS011;10908;50.690;4.400;2022-07-29T02:27:37;5.70;;;1.52;;
21492;SDS011;10908;50.690;4.400;2022-07-29T02:30:05;4.10;;;1.40;;
21492;SDS011;10908;50.690;4.400;2022-07-29T02:32:32;5.28;;;1.48;;
21492;SDS011;10908;50.690;4.400;2022-07-29T02:35:00;5.78;;;1.80;;
21492;SDS011;10908;50.690;4.400;2022-07-29T02:37:27;7.40;;;1.70;;
21492;SDS011;10908;50.690;4.400;2022-07-29T02:39:54;5.80;;;1.98;;
21492;SDS011;10908;50.690;4.400;2022-07-29T02:42:21;6.85;;;1.60;;
21492;SDS011;10908;50.690;4.400;2022-07-29T02:44:49;6.95;;;1.80;;
21492;SDS011;10908;50.690;4.400;2022-07-29T02:47:19;6.05;;;1.80;;
21492;SDS011;10908;50.690;4.400;2022-07-29T02:49:57;5.72;;;1.77;;
21492;SDS011;10908;50.690;4.400;2022-07-29T02:55:17;4.95;;;1.67;;
21492;SDS011;10908;50.690;4.400;2022-07-29T02:58:10;6.85;;;1.67;;
21492;SDS011;10908;50.690;4.400;2022-07-29T03:00:44;9.23;;;2.00;;
21492;SDS011;10908;50.690;4.400;2022-07-29T03:03:14;6.45;;;2.13;;
21492;SDS011;10908;50.690;4.400;2022-07-29T03:05:41;5.93;;;1.77;;
21492;SDS011;10908;50.690;4.400;2022-07-29T03:08:09;6.80;;;1.90;;
21492;SDS011;10908;50.690;4.400;2022-07-29T03:10:37;6.65;;;2.25;;
21492;SDS011;10908;50.690;4.400;2022-07-29T03:13:08;9.63;;;1.75;;
21492;SDS011;10908;50.690;4.400;2022-07-29T03:15:35;6.15;;;1.80;;
21492;SDS011;10908;50.690;4.400;2022-07-29T03:18:01;4.43;;;1.45;;
21492;SDS011;10908;50.690;4.400;2022-07-29T03:20:28;6.60;;;2.00;;
21492;SDS011;10908;50.690;4.400;2022-07-29T03:22:54;4.63;;;1.70;;
21492;SDS011;10908;50.690;4.400;2022-07-29T03:25:20;5.18;;;1.65;;
21492;SDS011;10908;50.690;4.400;2022-07-29T03:27:46;6.18;;;1.90;;
21492;SDS011;10908;50.690;4.400;2022-07-29T03:30:12;5.22;;;1.80;;
21492;SDS011;10908;50.690;4.400;2022-07-29T03:32:39;6.05;;;2.08;;
21492;SDS011;10908;50.690;4.400;2022-07-29T03:35:05;5.85;;;1.70;;
21492;SDS011;10908;50.690;4.400;2022-07-29T03:37:31;4.75;;;1.60;;
21492;SDS011;10908;50.690;4.400;2022-07-29T03:39:58;7.00;;;1.95;;
21492;SDS011;10908;50.690;4.400;2022-07-29T03:42:28;5.45;;;1.73;;
21492;SDS011;10908;50.690;4.400;2022-07-29T03:44:58;5.32;;;1.70;;
21492;SDS011;10908;50.690;4.400;2022-07-29T03:47:28;6.03;;;2.28;;
21492;SDS011;10908;50.690;4.400;2022-07-29T03:49:56;6.72;;;2.10;;
21492;SDS011;10908;50.690;4.400;2022-07-29T03:52:27;6.85;;;1.85;;
21492;SDS011;10908;50.690;4.400;2022-07-29T03:54:53;4.75;;;1.98;;
21492;SDS011;10908;50.690;4.400;2022-07-29T03:57:20;4.63;;;1.80;;
21492;SDS011;10908;50.690;4.400;2022-07-29T03:59:51;5.32;;;1.80;;
21492;SDS011;10908;50.690;4.400;2022-07-29T04:02:17;4.38;;;1.95;;
21492;SDS011;10908;50.690;4.400;2022-07-29T04:04:43;4.18;;;1.80;;
21492;SDS011;10908;50.690;4.400;2022-07-29T04:07:12;5.95;;;1.90;;
21492;SDS011;10908;50.690;4.400;2022-07-29T04:09:39;4.28;;;1.73;;
21492;SDS011;10908;50.690;4.400;2022-07-29T04:12:05;4.93;;;1.80;;
21492;SDS011;10908;50.690;4.400;2022-07-29T04:14:31;4.93;;;1.80;;
21492;SDS011;10908;50.690;4.400;2022-07-29T04:16:57;6.80;;;2.10;;
21492;SDS011;10908;50.690;4.400;2022-07-29T04:19:24;6.53;;;2.45;;
21492;SDS011;10908;50.690;4.400;2022-07-29T04:21:49;10.02;;;2.20;;
21492;SDS011;10908;50.690;4.400;2022-07-29T04:24:16;6.20;;;1.70;;
21492;SDS011;10908;50.690;4.400;2022-07-29T04:26:42;5.50;;;1.85;;
21492;SDS011;10908;50.690;4.400;2022-07-29T04:29:08;5.72;;;2.10;;
21492;SDS011;10908;50.690;4.400;2022-07-29T04:31:34;5.68;;;1.60;;
21492;SDS011;10908;50.690;4.400;2022-07-29T04:33:59;6.43;;;1.80;;
21492;SDS011;10908;50.690;4.400;2022-07-29T04:36:25;8.65;;;1.98;;
21492;SDS011;10908;50.690;4.400;2022-07-29T04:38:51;7.05;;;1.92;;
21492;SDS011;10908;50.690;4.400;2022-07-29T04:41:16;6.65;;;1.90;;
21492;SDS011;10908;50.690;4.400;2022-07-29T04:43:42;6.15;;;1.90;;
21492;SDS011;10908;50.690;4.400;2022-07-29T04:46:08;6.95;;;1.70;;
21492;SDS011;10908;50.690;4.400;2022-07-29T04:48:33;5.60;;;1.80;;
21492;SDS011;10908;50.690;4.400;2022-07-29T04:50:59;5.50;;;1.70;;
21492;SDS011;10908;50.690;4.400;2022-07-29T04:53:25;5.50;;;1.83;;
21492;SDS011;10908;50.690;4.400;2022-07-29T04:55:51;5.35;;;1.80;;
21492;SDS011;10908;50.690;4.400;2022-07-29T04:58:16;7.60;;;2.45;;
21492;SDS011;10908;50.690;4.400;2022-07-29T05:00:42;5.90;;;1.88;;
21492;SDS011;10908;50.690;4.400;2022-07-29T05:03:08;4.88;;;1.70;;
21492;SDS011;10908;50.690;4.400;2022-07-29T05:05:33;5.47;;;2.00;;
21492;SDS011;10908;50.690;4.400;2022-07-29T05:07:59;5.95;;;1.88;;
21492;SDS011;10908;50.690;4.400;2022-07-29T05:10:25;5.57;;;1.73;;
21492;SDS011;10908;50.690;4.400;2022-07-29T05:12:51;5.65;;;1.98;;
21492;SDS011;10908;50.690;4.400;2022-07-29T05:15:16;6.32;;;2.00;;
21492;SDS011;10908;50.690;4.400;2022-07-29T05:17:42;4.53;;;1.88;;
21492;SDS011;10908;50.690;4.400;2022-07-29T05:20:09;7.13;;;2.08;;
21492;SDS011;10908;50.690;4.400;2022-07-29T05:22:35;7.32;;;2.10;;
21492;SDS011;10908;50.690;4.400;2022-07-29T05:25:00;7.15;;;2.00;;
21492;SDS011;10908;50.690;4.400;2022-07-29T05:27:27;6.50;;;2.15;;
21492;SDS011;10908;50.690;4.400;2022-07-29T05:29:52;5.95;;;2.25;;
21492;SDS011;10908;50.690;4.400;2022-07-29T05:32:18;7.32;;;2.00;;
21492;SDS011;10908;50.690;4.400;2022-07-29T05:34:44;6.22;;;2.08;;
21492;SDS011;10908;50.690;4.400;2022-07-29T05:37:10;8.75;;;2.47;;
21492;SDS011;10908;50.690;4.400;2022-07-29T05:39:35;7.47;;;2.30;;
21492;SDS011;10908;50.690;4.400;2022-07-29T05:42:01;8.15;;;2.60;;
21492;SDS011;10908;50.690;4.400;2022-07-29T05:44:27;5.50;;;2.30;;
21492;SDS011;10908;50.690;4.400;2022-07-29T05:46:53;7.18;;;2.50;;
21492;SDS011;10908;50.690;4.400;2022-07-29T05:49:19;8.23;;;2.65;;
21492;SDS011;10908;50.690;4.400;2022-07-29T05:51:44;4.72;;;2.50;;
21492;SDS011;10908;50.690;4.400;2022-07-29T05:54:11;9.27;;;3.20;;
21492;SDS011;10908;50.690;4.400;2022-07-29T05:56:39;6.90;;;2.95;;
21492;SDS011;10908;50.690;4.400;2022-07-29T05:59:04;9.38;;;3.10;;
21492;SDS011;10908;50.690;4.400;2022-07-29T06:01:30;7.82;;;3.10;;
21492;SDS011;10908;50.690;4.400;2022-07-29T06:03:56;5.30;;;2.70;;
21492;SDS011;10908;50.690;4.400;2022-07-29T06:06:22;9.40;;;3.20;;
21492;SDS011;10908;50.690;4.400;2022-07-29T06:08:47;7.50;;;3.00;;
21492;SDS011;10908;50.690;4.400;2022-07-29T06:11:13;6.15;;;2.90;;
21492;SDS011;10908;50.690;4.400;2022-07-29T06:13:39;8.60;;;3.30;;
21492;SDS011;10908;50.690;4.400;2022-07-29T06:16:04;8.05;;;3.05;;
21492;SDS011;10908;50.690;4.400;2022-07-29T06:18:30;7.30;;;3.08;;
21492;SDS011;10908;50.690;4.400;2022-07-29T06:20:56;7.38;;;3.08;;
21492;SDS011;10908;50.690;4.400;2022-07-29T06:23:21;7.63;;;3.05;;
21492;SDS011;10908;50.690;4.400;2022-07-29T06:25:47;9.25;;;3.13;;
21492;SDS011;10908;50.690;4.400;2022-07-29T06:28:13;9.65;;;2.85;;
21492;SDS011;10908;50.690;4.400;2022-07-29T06:30:39;8.07;;;3.13;;
21492;SDS011;10908;50.690;4.400;2022-07-29T06:33:05;9.68;;;3.33;;
21492;SDS011;10908;50.690;4.400;2022-07-29T06:35:33;5.60;;;2.92;;
21492;SDS011;10908;50.690;4.400;2022-07-29T06:38:00;7.70;;;3.30;;
21492;SDS011;10908;50.690;4.400;2022-07-29T06:40:26;7.28;;;3.20;;
21492;SDS011;10908;50.690;4.400;2022-07-29T06:43:24;7.20;;;3.05;;
21492;SDS011;10908;50.690;4.400;2022-07-29T06:45:51;8.38;;;3.45;;
21492;SDS011;10908;50.690;4.400;2022-07-29T06:48:17;8.13;;;2.92;;
21492;SDS011;10908;50.690;4.400;2022-07-29T06:50:43;7.32;;;3.08;;
21492;SDS011;10908;50.690;4.400;2022-07-29T06:53:08;6.80;;;3.00;;
21492;SDS011;10908;50.690;4.400;2022-07-29T06:55:34;5.75;;;2.95;;
21492;SDS011;10908;50.690;4.400;2022-07-29T06:58:01;7.60;;;3.20;;
21492;SDS011;10908;50.690;4.400;2022-07-29T07:00:27;6.65;;;2.97;;
21492;SDS011;10908;50.690;4.400;2022-07-29T07:02:53;7.47;;;2.97;;
21492;SDS011;10908;50.690;4.400;2022-07-29T07:05:18;8.90;;;3.20;;
21492;SDS011;10908;50.690;4.400;2022-07-29T07:07:44;7.20;;;2.95;;
21492;SDS011;10908;50.690;4.400;2022-07-29T07:10:10;5.70;;;2.72;;
21492;SDS011;10908;50.690;4.400;2022-07-29T07:12:35;7.32;;;2.70;;
21492;SDS011;10908;50.690;4.400;2022-07-29T07:15:01;5.82;;;2.80;;
21492;SDS011;10908;50.690;4.400;2022-07-29T07:17:28;5.82;;;2.38;;
21492;SDS011;10908;50.690;4.400;2022-07-29T07:19:53;6.80;;;2.92;;
21492;SDS011;10908;50.690;4.400;2022-07-29T07:22:19;6.18;;;2.63;;
21492;SDS011;10908;50.690;4.400;2022-07-29T07:24:47;7.47;;;2.90;;
21492;SDS011;10908;50.690;4.400;2022-07-29T07:27:13;7.65;;;2.60;;
21492;SDS011;10908;50.690;4.400;2022-07-29T07:29:39;5.80;;;2.47;;
21492;SDS011;10908;50.690;4.400;2022-07-29T07:32:06;9.20;;;2.65;;
21492;SDS011;10908;50.690;4.400;2022-07-29T07:34:32;8.63;;;2.60;;
21492;SDS011;10908;50.690;4.400;2022-07-29T07:36:58;7.20;;;2.75;;
21492;SDS011;10908;50.690;4.400;2022-07-29T07:39:24;6.22;;;2.60;;
21492;SDS011;10908;50.690;4.400;2022-07-29T07:41:51;6.38;;;2.78;;
21492;SDS011;10908;50.690;4.400;2022-07-29T07:44:17;7.93;;;2.90;;
21492;SDS011;10908;50.690;4.400;2022-07-29T07:46:42;6.53;;;2.35;;
21492;SDS011;10908;50.690;4.400;2022-07-29T07:49:09;6.75;;;2.42;;
21492;SDS011;10908;50.690;4.400;2022-07-29T07:51:35;6.60;;;2.60;;
21492;SDS011;10908;50.690;4.400;2022-07-29T07:54:01;5.90;;;2.38;;
21492;SDS011;10908;50.690;4.400;2022-07-29T07:56:27;6.13;;;2.33;;
21492;SDS011;10908;50.690;4.400;2022-07-29T07:58:53;8.10;;;2.50;;
21492;SDS011;10908;50.690;4.400;2022-07-29T08:01:18;9.65;;;2.58;;
21492;SDS011;10908;50.690;4.400;2022-07-29T08:03:47;5.57;;;2.60;;
21492;SDS011;10908;50.690;4.400;2022-07-29T08:06:14;6.05;;;2.30;;
21492;SDS011;10908;50.690;4.400;2022-07-29T08:08:40;5.97;;;2.33;;
21492;SDS011;10908;50.690;4.400;2022-07-29T08:11:05;7.85;;;2.88;;
21492;SDS011;10908;50.690;4.400;2022-07-29T08:13:31;8.93;;;2.50;;
21492;SDS011;10908;50.690;4.400;2022-07-29T08:15:57;6.15;;;2.35;;
21492;SDS011;10908;50.690;4.400;2022-07-29T08:18:28;5.50;;;1.90;;
21492;SDS011;10908;50.690;4.400;2022-07-29T08:20:55;9.75;;;2.80;;
21492;SDS011;10908;50.690;4.400;2022-07-29T08:23:23;7.57;;;2.72;;
21492;SDS011;10908;50.690;4.400;2022-07-29T08:25:49;4.75;;;2.13;;
21492;SDS011;10908;50.690;4.400;2022-07-29T08:28:15;7.65;;;2.13;;
21492;SDS011;10908;50.690;4.400;2022-07-29T08:30:41;7.95;;;2.30;;
21492;SDS011;10908;50.690;4.400;2022-07-29T08:33:07;7.82;;;2.58;;
21492;SDS011;10908;50.690;4.400;2022-07-29T08:35:32;8.82;;;2.47;;
21492;SDS011;10908;50.690;4.400;2022-07-29T08:37:58;8.32;;;2.90;;
21492;SDS011;10908;50.690;4.400;2022-07-29T08:40:24;8.30;;;3.17;;
21492;SDS011;10908;50.690;4.400;2022-07-29T08:42:50;9.68;;;2.90;;
21492;SDS011;10908;50.690;4.400;2022-07-29T08:45:16;9.75;;;2.60;;
21492;SDS011;10908;50.690;4.400;2022-07-29T08:47:42;6.97;;;2.63;;
21492;SDS011;10908;50.690;4.400;2022-07-29T08:50:10;7.50;;;2.75;;
21492;SDS011;10908;50.690;4.400;2022-07-29T08:52:37;6.72;;;3.15;;
21492;SDS011;10908;50.690;4.400;2022-07-29T08:55:04;8.65;;;2.30;;
21492;SDS011;10908;50.690;4.400;2022-07-29T08:57:32;10.88;;;2.78;;
21492;SDS011;10908;50.690;4.400;2022-07-29T08:59:59;8.48;;;2.65;;
21492;SDS011;10908;50.690;4.400;2022-07-29T09:02:26;7.53;;;2.53;;
21492;SDS011;10908;50.690;4.400;2022-07-29T09:04:58;9.32;;;2.47;;
21492;SDS011;10908;50.690;4.400;2022-07-29T09:07:25;5.90;;;2.60;;
21492;SDS011;10908;50.690;4.400;2022-07-29T09:09:51;6.53;;;2.20;;
21492;SDS011;10908;50.690;4.400;2022-07-29T09:12:16;5.72;;;2.22;;
21492;SDS011;10908;50.690;4.400;2022-07-29T09:14:42;6.07;;;2.00;;
21492;SDS011;10908;50.690;4.400;2022-07-29T09:17:08;6.20;;;2.03;;
21492;SDS011;10908;50.690;4.400;2022-07-29T09:19:35;5.53;;;1.95;;
21492;SDS011;10908;50.690;4.400;2022-07-29T09:22:06;7.85;;;2.03;;
21492;SDS011;10908;50.690;4.400;2022-07-29T09:27:07;7.30;;;1.80;;
21492;SDS011;10908;50.690;4.400;2022-07-29T09:29:34;5.80;;;1.80;;
21492;SDS011;10908;50.690;4.400;2022-07-29T09:32:01;6.25;;;1.98;;
21492;SDS011;10908;50.690;4.400;2022-07-29T09:34:32;5.03;;;2.00;;
21492;SDS011;10908;50.690;4.400;2022-07-29T09:36:58;6.72;;;1.98;;
21492;SDS011;10908;50.690;4.400;2022-07-29T09:39:26;6.40;;;1.63;;
21492;SDS011;10908;50.690;4.400;2022-07-29T09:41:54;10.90;;;1.90;;
21492;SDS011;10908;50.690;4.400;2022-07-29T09:44:22;5.38;;;1.90;;
21492;SDS011;10908;50.690;4.400;2022-07-29T09:47:06;9.40;;;1.85;;
21492;SDS011;10908;50.690;4.400;2022-07-29T09:49:35;6.60;;;1.70;;
21492;SDS011;10908;50.690;4.400;2022-07-29T09:52:23;5.68;;;1.73;;
21492;SDS011;10908;50.690;4.400;2022-07-29T09:54:49;7.90;;;1.70;;
21492;SDS011;10908;50.690;4.400;2022-07-29T09:57:48;5.22;;;1.63;;
21492;SDS011;10908;50.690;4.400;2022-07-29T10:00:08;5.47;;;1.67;;
21492;SDS011;10908;50.690;4.400;2022-07-29T10:02:36;8.73;;;1.88;;
21492;SDS011;10908;50.690;4.400;2022-07-29T10:05:04;5.25;;;1.70;;
21492;SDS011;10908;50.690;4.400;2022-07-29T10:07:48;6.53;;;2.00;;
21492;SDS011;10908;50.690;4.400;2022-07-29T10:10:32;6.30;;;1.40;;
21492;SDS011;10908;50.690;4.400;2022-07-29T10:13:00;9.85;;;1.83;;
21492;SDS011;10908;50.690;4.400;2022-07-29T10:15:44;6.18;;;1.35;;
21492;SDS011;10908;50.690;4.400;2022-07-29T10:18:11;4.25;;;1.40;;
21492;SDS011;10908;50.690;4.400;2022-07-29T10:20:38;7.82;;;1.52;;
21492;SDS011;10908;50.690;4.400;2022-07-29T10:23:04;4.80;;;1.50;;
21492;SDS011;10908;50.690;4.400;2022-07-29T10:25:30;5.00;;;1.60;;
21492;SDS011;10908;50.690;4.400;2022-07-29T10:27:56;6.53;;;1.50;;
21492;SDS011;10908;50.690;4.400;2022-07-29T10:30:23;8.70;;;1.48;;
21492;SDS011;10908;50.690;4.400;2022-07-29T10:35:35;11.80;;;1.75;;
21492;SDS011;10908;50.690;4.400;2022-07-29T10:40:57;7.38;;;1.80;;
21492;SDS011;10908;50.690;4.400;2022-07-29T10:43:53;4.78;;;1.48;;
21492;SDS011;10908;50.690;4.400;2022-07-29T10:46:22;10.25;;;1.67;;
21492;SDS011;10908;50.690;4.400;2022-07-29T10:49:34;4.97;;;1.50;;
21492;SDS011;10908;50.690;4.400;2022-07-29T10:57:18;6.80;;;1.50;;
21492;SDS011;10908;50.690;4.400;2022-07-29T10:59:49;5.63;;;1.75;;
21492;SDS011;10908;50.690;4.400;2022-07-29T11:05:16;4.45;;;1.60;;
21492;SDS011;10908;50.690;4.400;2022-07-29T11:10:37;8.93;;;1.73;;
21492;SDS011;10908;50.690;4.400;2022-07-29T11:13:04;4.53;;;1.50;;
21492;SDS011;10908;50.690;4.400;2022-07-29T11:15:32;5.75;;;1.60;;
21492;SDS011;10908;50.690;4.400;2022-07-29T11:18:22;5.47;;;1.70;;
21492;SDS011;10908;50.690;4.400;2022-07-29T11:20:49;6.13;;;1.98;;
21492;SDS011;10908;50.690;4.400;2022-07-29T11:23:28;7.53;;;1.90;;
21492;SDS011;10908;50.690;4.400;2022-07-29T11:29:05;7.97;;;2.03;;
21492;SDS011;10908;50.690;4.400;2022-07-29T11:31:42;7.88;;;1.70;;
21492;SDS011;10908;50.690;4.400;2022-07-29T11:39:35;9.90;;;2.40;;
21492;SDS011;10908;50.690;4.400;2022-07-29T11:47:22;5.68;;;1.67;;
21492;SDS011;10908;50.690;4.400;2022-07-29T11:49:48;7.55;;;2.85;;
21492;SDS011;10908;50.690;4.400;2022-07-29T11:52:16;6.53;;;2.00;;
21492;SDS011;10908;50.690;4.400;2022-07-29T11:54:43;5.10;;;1.80;;
21492;SDS011;10908;50.690;4.400;2022-07-29T11:57:09;4.43;;;1.60;;
21492;SDS011;10908;50.690;4.400;2022-07-29T11:59:39;6.40;;;1.83;;
21492;SDS011;10908;50.690;4.400;2022-07-29T12:02:06;9.73;;;1.80;;
21492;SDS011;10908;50.690;4.400;2022-07-29T12:04:33;9.40;;;2.30;;
21492;SDS011;10908;50.690;4.400;2022-07-29T12:06:59;6.18;;;2.25;;
21492;SDS011;10908;50.690;4.400;2022-07-29T12:09:25;5.00;;;2.10;;
21492;SDS011;10908;50.690;4.400;2022-07-29T12:11:57;8.35;;;2.08;;
21492;SDS011;10908;50.690;4.400;2022-07-29T12:14:32;6.38;;;1.63;;
21492;SDS011;10908;50.690;4.400;2022-07-29T12:16:59;6.53;;;1.95;;
21492;SDS011;10908;50.690;4.400;2022-07-29T12:19:25;5.47;;;1.83;;
21492;SDS011;10908;50.690;4.400;2022-07-29T12:21:52;5.82;;;1.80;;
21492;SDS011;10908;50.690;4.400;2022-07-29T12:24:20;5.60;;;2.08;;
21492;SDS011;10908;50.690;4.400;2022-07-29T12:26:56;8.43;;;2.70;;
21492;SDS011;10908;50.690;4.400;2022-07-29T12:29:22;7.20;;;2.05;;
21492;SDS011;10908;50.690;4.400;2022-07-29T12:31:52;5.35;;;1.80;;
21492;SDS011;10908;50.690;4.400;2022-07-29T12:34:22;4.93;;;2.00;;
21492;SDS011;10908;50.690;4.400;2022-07-29T12:36:51;7.63;;;2.15;;
21492;SDS011;10908;50.690;4.400;2022-07-29T12:39:17;8.52;;;2.35;;
21492;SDS011;10908;50.690;4.400;2022-07-29T12:41:43;8.35;;;2.20;;
21492;SDS011;10908;50.690;4.400;2022-07-29T12:44:09;9.02;;;2.13;;
21492;SDS011;10908;50.690;4.400;2022-07-29T12:46:36;8.10;;;2.50;;
21492;SDS011;10908;50.690;4.400;2022-07-29T12:49:02;7.22;;;2.38;;
21492;SDS011;10908;50.690;4.400;2022-07-29T12:51:32;6.90;;;2.45;;
21492;SDS011;10908;50.690;4.400;2022-07-29T12:54:09;6.95;;;2.17;;
21492;SDS011;10908;50.690;4.400;2022-07-29T12:56:40;9.43;;;2.65;;
21492;SDS011;10908;50.690;4.400;2022-07-29T12:59:14;7.45;;;2.28;;
21492;SDS011;10908;50.690;4.400;2022-07-29T13:01:45;7.10;;;2.33;;
21492;SDS011;10908;50.690;4.400;2022-07-29T13:04:26;6.97;;;2.40;;
21492;SDS011;10908;50.690;4.400;2022-07-29T13:07:00;6.90;;;2.13;;
21492;SDS011;10908;50.690;4.400;2022-07-29T13:09:40;6.55;;;2.10;;
21492;SDS011;10908;50.690;4.400;2022-07-29T13:12:08;8.02;;;2.08;;
21492;SDS011;10908;50.690;4.400;2022-07-29T13:14:37;5.25;;;2.10;;
21492;SDS011;10908;50.690;4.400;2022-07-29T13:17:11;6.90;;;2.42;;
21492;SDS011;10908;50.690;4.400;2022-07-29T13:19:45;7.80;;;2.00;;
21492;SDS011;10908;50.690;4.400;2022-07-29T13:22:13;6.13;;;1.95;;
21492;SDS011;10908;50.690;4.400;2022-07-29T13:27:17;6.95;;;2.30;;
21492;SDS011;10908;50.690;4.400;2022-07-29T13:29:45;6.00;;;2.28;;
21492;SDS011;10908;50.690;4.400;2022-07-29T13:32:11;8.82;;;2.20;;
21492;SDS011;10908;50.690;4.400;2022-07-29T13:34:38;5.75;;;2.03;;
21492;SDS011;10908;50.690;4.400;2022-07-29T13:37:04;6.35;;;2.10;;
21492;SDS011;10908;50.690;4.400;2022-07-29T13:39:30;12.32;;;2.20;;
21492;SDS011;10908;50.690;4.400;2022-07-29T13:41:55;11.38;;;2.20;;
21492;SDS011;10908;50.690;4.400;2022-07-29T13:44:21;6.85;;;1.80;;
21492;SDS011;10908;50.690;4.400;2022-07-29T13:46:47;6.53;;;1.80;;
21492;SDS011;10908;50.690;4.400;2022-07-29T13:49:12;5.40;;;1.98;;
21492;SDS011;10908;50.690;4.400;2022-07-29T13:51:38;8.60;;;2.15;;
21492;SDS011;10908;50.690;4.400;2022-07-29T13:54:04;5.45;;;1.85;;
21492;SDS011;10908;50.690;4.400;2022-07-29T13:56:30;5.57;;;1.90;;
21492;SDS011;10908;50.690;4.400;2022-07-29T13:58:56;5.32;;;1.80;;
21492;SDS011;10908;50.690;4.400;2022-07-29T14:01:22;9.18;;;2.00;;
21492;SDS011;10908;50.690;4.400;2022-07-29T14:03:48;4.80;;;1.60;;
21492;SDS011;10908;50.690;4.400;2022-07-29T14:06:14;6.97;;;1.70;;
21492;SDS011;10908;50.690;4.400;2022-07-29T14:08:40;4.38;;;1.55;;
21492;SDS011;10908;50.690;4.400;2022-07-29T14:11:06;4.35;;;1.83;;
21492;SDS011;10908;50.690;4.400;2022-07-29T14:13:31;7.60;;;2.25;;
21492;SDS011;10908;50.690;4.400;2022-07-29T14:15:57;5.32;;;2.00;;
21492;SDS011;10908;50.690;4.400;2022-07-29T14:18:23;15.18;;;2.03;;
21492;SDS011;10908;50.690;4.400;2022-07-29T14:20:49;8.50;;;1.80;;
21492;SDS011;10908;50.690;4.400;2022-07-29T14:23:16;6.85;;;1.67;;
21492;SDS011;10908;50.690;4.400;2022-07-29T14:25:41;6.35;;;1.70;;
21492;SDS011;10908;50.690;4.400;2022-07-29T14:28:07;8.43;;;1.58;;
21492;SDS011;10908;50.690;4.400;2022-07-29T14:30:33;7.60;;;1.63;;
21492;SDS011;10908;50.690;4.400;2022-07-29T14:32:58;5.50;;;1.60;;
21492;SDS011;10908;50.690;4.400;2022-07-29T14:35:24;5.07;;;1.50;;
21492;SDS011;10908;50.690;4.400;2022-07-29T14:37:50;6.63;;;1.40;;
21492;SDS011;10908;50.690;4.400;2022-07-29T14:40:15;7.25;;;1.70;;
21492;SDS011;10908;50.690;4.400;2022-07-29T14:42:41;6.70;;;1.40;;
21492;SDS011;10908;50.690;4.400;2022-07-29T14:45:08;4.70;;;1.60;;
21492;SDS011;10908;50.690;4.400;2022-07-29T14:47:34;6.13;;;1.50;;
21492;SDS011;10908;50.690;4.400;2022-07-29T14:50:00;4.90;;;1.58;;
21492;SDS011;10908;50.690;4.400;2022-07-29T14:52:26;6.50;;;1.77;;
21492;SDS011;10908;50.690;4.400;2022-07-29T14:54:51;5.47;;;1.40;;
21492;SDS011;10908;50.690;4.400;2022-07-29T14:57:17;7.10;;;1.90;;
21492;SDS011;10908;50.690;4.400;2022-07-29T14:59:42;4.18;;;1.33;;
21492;SDS011;10908;50.690;4.400;2022-07-29T15:02:08;7.40;;;1.42;;
21492;SDS011;10908;50.690;4.400;2022-07-29T15:04:34;5.50;;;1.42;;
21492;SDS011;10908;50.690;4.400;2022-07-29T15:06:59;6.82;;;1.40;;
21492;SDS011;10908;50.690;4.400;2022-07-29T15:09:25;6.88;;;1.38;;
21492;SDS011;10908;50.690;4.400;2022-07-29T15:11:51;4.78;;;1.45;;
21492;SDS011;10908;50.690;4.400;2022-07-29T15:14:16;5.72;;;1.20;;
21492;SDS011;10908;50.690;4.400;2022-07-29T15:16:42;3.75;;;1.30;;
21492;SDS011;10908;50.690;4.400;2022-07-29T15:19:08;7.30;;;1.60;;
21492;SDS011;10908;50.690;4.400;2022-07-29T15:21:34;6.85;;;1.60;;
21492;SDS011;10908;50.690;4.400;2022-07-29T15:24:00;7.15;;;1.50;;
21492;SDS011;10908;50.690;4.400;2022-07-29T15:26:26;6.78;;;1.70;;
21492;SDS011;10908;50.690;4.400;2022-07-29T15:28:51;6.57;;;1.70;;
21492;SDS011;10908;50.690;4.400;2022-07-29T15:31:17;7.13;;;1.60;;
21492;SDS011;10908;50.690;4.400;2022-07-29T15:33:44;5.07;;;1.55;;
21492;SDS011;10908;50.690;4.400;2022-07-29T15:36:10;5.13;;;1.60;;
21492;SDS011;10908;50.690;4.400;2022-07-29T15:38:37;5.93;;;1.40;;
21492;SDS011;10908;50.690;4.400;2022-07-29T15:41:05;5.85;;;1.70;;
21492;SDS011;10908;50.690;4.400;2022-07-29T15:46:25;7.65;;;1.60;;
21492;SDS011;10908;50.690;4.400;2022-07-29T15:49:09;5.78;;;1.60;;